Time;durP1;ratioP1;P1;durP2;ratioP2;P2;SDS_P1;SDS_P2;PMS_P1;PMS_P2;Temp;Humidity;BMP_temperature;BMP_pressure;BME280_temperature;BME280_humidity;BME280_pressure;Samples;Min_cycle;Max_cycle;Signal;HPM_P1;HPM_P2
2022/09/09 00:01:47;;;;;;;15.57;1.80;;;15.60;99.90;;;;;;4975778;28;20057;-61
2022/09/09 00:04:16;;;;;;;;;;;15.60;99.90;;;;;;4977424;28;20031;-62
2022/09/09 00:06:50;;;;;;;11.95;1.90;;;15.60;99.90;;;;;;4981248;28;19917;-62
2022/09/09 00:09:19;;;;;;;18.83;3.35;;;15.60;99.90;;;;;;4972409;28;20445;-66
2022/09/09 00:11:52;;;;;;;7.43;1.75;;;15.70;99.90;;;;;;4977240;28;20418;-62
2022/09/09 00:14:37;;;;;;;8.95;1.48;;;15.70;99.90;;;;;;4980214;28;20100;-61
2022/09/09 00:17:27;;;;;;;10.15;1.02;;;15.60;99.90;;;;;;4973169;28;20031;-61
2022/09/09 00:20:10;;;;;;;4.78;0.77;;;15.60;99.90;;;;;;4967691;28;20097;-61
2022/09/09 00:22:42;;;;;;;3.88;0.90;;;15.50;99.90;;;;;;4970733;28;20542;-63
2022/09/09 00:25:17;;;;;;;9.00;1.35;;;15.40;99.90;;;;;;4972967;28;20509;-62
2022/09/09 00:27:47;;;;;;;5.35;0.88;;;15.40;99.90;;;;;;4977823;28;20096;-62
2022/09/09 00:30:22;;;;;;;7.78;1.00;;;15.30;99.90;;;;;;4970081;28;20022;-63
2022/09/09 00:32:59;;;;;;;6.43;1.40;;;15.20;99.90;;;;;;4968481;28;20390;-62
2022/09/09 00:35:36;;;;;;;4.78;1.00;;;15.20;99.90;;;;;;4971589;28;20034;-61
2022/09/09 00:38:28;;;;;;;7.85;1.30;;;15.20;99.90;;;;;;4968012;28;20054;-61
2022/09/09 00:41:11;;;;;;;6.63;1.52;;;15.20;99.90;;;;;;4969768;28;20052;-63
2022/09/09 00:43:40;;;;;;;7.93;1.48;;;15.20;99.90;;;;;;4969997;28;20462;-66
2022/09/09 00:46:23;;;;;;;4.30;0.80;;;15.20;99.90;;;;;;4968926;28;20065;-65
2022/09/09 00:49:00;;;;;;;9.25;1.75;;;15.20;99.90;;;;;;4967961;28;20095;-64
2022/09/09 00:51:50;;;;;;;12.52;2.30;;;15.10;99.90;;;;;;4970597;28;20117;-66
2022/09/09 00:54:27;;;;;;;8.40;1.38;;;15.10;99.90;;;;;;4966449;28;20394;-63
2022/09/09 00:57:10;;;;;;;11.52;1.60;;;15.10;99.90;;;;;;4975414;28;20112;-61
2022/09/09 00:59:45;;;;;;;7.55;1.10;;;15.10;99.90;;;;;;4973846;28;20050;-62
2022/09/09 01:02:22;;;;;;;9.60;1.30;;;15.20;99.90;;;;;;4971683;28;20543;-63
2022/09/09 01:04:47;;;;;;;5.25;1.20;;;15.10;99.90;;;;;;4974741;28;20035;-67
2022/09/09 01:07:18;;;;;;;6.38;1.08;;;15.20;99.90;;;;;;4978732;28;20035;-64
2022/09/09 01:09:57;;;;;;;6.05;1.05;;;15.10;99.90;;;;;;4983191;28;20121;-62
2022/09/09 01:12:46;;;;;;;6.35;1.20;;;15.00;99.90;;;;;;4966287;28;20050;-61
2022/09/09 01:15:24;;;;;;;5.40;2.42;;;15.00;99.90;;;;;;4975414;28;20035;-61
2022/09/09 01:18:10;;;;;;;5.63;1.42;;;15.00;99.90;;;;;;4975029;28;20428;-62
2022/09/09 01:21:04;;;;;;;6.07;1.10;;;15.00;99.90;;;;;;4982212;28;20113;-63
2022/09/09 01:23:48;;;;;;;9.27;1.42;;;15.00;99.90;;;;;;4963709;28;20372;-62
2022/09/09 01:26:37;;;;;;;8.00;1.42;;;15.00;99.90;;;;;;4968150;28;20106;-62
2022/09/09 01:29:06;;;;;;;11.40;2.00;;;15.00;99.90;;;;;;4975995;28;20022;-63
2022/09/09 01:31:39;;;;;;;12.10;1.73;;;15.00;99.90;;;;;;4969503;28;20030;-62
2022/09/09 01:34:13;;;;;;;6.03;1.17;;;15.00;99.90;;;;;;4968446;28;20228;-63
2022/09/09 01:36:45;;;;;;;5.72;1.27;;;15.00;99.90;;;;;;4975139;28;20034;-62
2022/09/09 01:39:11;;;;;;;;;;;14.90;99.90;;;;;;4972542;28;20044;-62
2022/09/09 01:41:38;;;;;;;8.40;1.30;;;14.90;99.90;;;;;;4967716;28;20239;-61
2022/09/09 01:44:04;;;;;;;7.30;1.30;;;14.90;99.90;;;;;;4974491;28;20390;-61
2022/09/09 01:46:29;;;;;;;8.18;1.40;;;14.90;99.90;;;;;;4977221;28;20553;-61
2022/09/09 01:48:56;;;;;;;10.02;1.25;;;14.90;99.90;;;;;;4969927;28;20130;-61
2022/09/09 01:51:23;;;;;;;7.13;2.60;;;14.90;99.90;;;;;;4968684;28;20031;-60
2022/09/09 01:53:49;;;;;;;7.22;1.63;;;14.80;99.90;;;;;;4968641;28;20018;-61
2022/09/09 01:56:34;;;;;;;11.25;1.83;;;14.90;99.90;;;;;;4965076;28;20397;-60
2022/09/09 01:59:06;;;;;;;10.50;1.42;;;14.80;99.90;;;;;;4968975;28;20534;-60
2022/09/09 02:01:50;;;;;;;8.73;1.45;;;14.80;99.90;;;;;;4970224;28;20026;-60
2022/09/09 02:04:29;;;;;;;7.75;1.10;;;14.70;99.90;;;;;;4969969;28;20406;-60
2022/09/09 02:06:59;;;;;;;7.40;1.23;;;14.60;99.90;;;;;;4966713;28;20023;-60
2022/09/09 02:09:26;;;;;;;5.50;1.15;;;14.60;99.90;;;;;;4970406;28;20097;-60
2022/09/09 02:12:17;;;;;;;10.70;1.40;;;14.50;99.90;;;;;;4968085;28;20126;-60
2022/09/09 02:14:50;;;;;;;6.85;2.38;;;14.50;99.90;;;;;;4968947;28;20057;-60
2022/09/09 02:17:24;;;;;;;11.70;1.60;;;14.50;99.90;;;;;;4970537;28;20019;-60
2022/09/09 02:19:56;;;;;;;6.32;1.90;;;14.40;99.90;;;;;;4959231;28;20153;-60
2022/09/09 02:22:26;;;;;;;6.10;1.73;;;14.30;99.90;;;;;;4970340;28;20027;-60
2022/09/09 02:24:55;;;;;;;7.13;1.63;;;14.30;99.90;;;;;;4968515;28;20043;-60
2022/09/09 02:27:22;;;;;;;8.63;1.60;;;14.20;99.90;;;;;;4970124;28;20030;-60
2022/09/09 02:29:51;;;;;;;7.15;2.72;;;14.20;99.90;;;;;;4968024;28;20118;-60
2022/09/09 02:32:24;;;;;;;8.82;1.67;;;14.10;99.90;;;;;;4970487;28;20074;-60
2022/09/09 02:34:55;;;;;;;10.50;2.78;;;14.10;99.90;;;;;;4967454;28;20041;-61
2022/09/09 02:37:28;;;;;;;8.82;2.15;;;14.00;99.90;;;;;;4961609;28;20027;-60
2022/09/09 02:39:54;;;;;;;7.40;2.08;;;14.10;99.90;;;;;;4968405;28;20041;-60
2022/09/09 02:42:20;;;;;;;5.88;1.80;;;14.10;99.90;;;;;;4969681;28;20027;-60
2022/09/09 02:44:46;;;;;;;5.95;1.85;;;14.10;99.90;;;;;;4969506;28;20050;-59
2022/09/09 02:47:21;;;;;;;8.43;2.20;;;14.00;99.90;;;;;;4968768;28;20814;-59
2022/09/09 02:49:59;;;;;;;12.55;2.53;;;14.00;99.90;;;;;;4969196;28;20082;-60
2022/09/09 02:52:53;;;;;;;10.95;2.40;;;14.00;99.90;;;;;;4967624;28;20063;-59
2022/09/09 02:55:25;;;;;;;6.53;2.10;;;13.90;99.90;;;;;;4958758;28;20042;-60
2022/09/09 02:57:52;;;;;;;5.70;2.17;;;13.90;99.90;;;;;;4963960;28;20458;-59
2022/09/09 03:00:27;;;;;;;9.32;2.17;;;13.90;99.90;;;;;;4970023;28;20027;-59
2022/09/09 03:02:54;;;;;;;7.18;2.40;;;13.90;99.90;;;;;;4967919;28;20019;-59
2022/09/09 03:05:20;;;;;;;10.20;2.80;;;13.80;99.90;;;;;;4973801;28;20039;-59
2022/09/09 03:07:46;;;;;;;7.57;2.65;;;13.90;99.90;;;;;;4974005;28;20465;-60
2022/09/09 03:10:13;;;;;;;12.38;2.13;;;13.90;99.90;;;;;;4968427;28;20037;-61
2022/09/09 03:12:39;;;;;;;6.80;1.98;;;13.80;99.90;;;;;;4972255;28;20114;-60
2022/09/09 03:15:06;;;;;;;6.43;2.40;;;13.90;99.90;;;;;;4972206;28;20034;-60
2022/09/09 03:17:32;;;;;;;7.22;1.63;;;13.90;99.90;;;;;;4973937;28;20027;-60
2022/09/09 03:19:58;;;;;;;8.23;1.70;;;14.00;99.90;;;;;;4969912;28;20023;-60
2022/09/09 03:22:25;;;;;;;8.90;2.00;;;14.00;99.90;;;;;;4973113;28;20114;-60
2022/09/09 03:24:51;;;;;;;6.13;2.03;;;14.00;99.90;;;;;;4965267;28;20106;-60
2022/09/09 03:27:19;;;;;;;7.35;1.63;;;14.10;99.90;;;;;;4964814;28;20027;-60
2022/09/09 03:29:45;;;;;;;4.80;1.30;;;14.20;99.90;;;;;;4973247;28;20034;-60
2022/09/09 03:32:12;;;;;;;7.03;2.10;;;14.30;99.90;;;;;;4970968;28;20478;-60
2022/09/09 03:34:40;;;;;;;8.40;2.60;;;14.40;99.90;;;;;;4973134;28;20129;-60
2022/09/09 03:37:06;;;;;;;2.75;1.55;;;14.50;99.90;;;;;;4967638;28;20026;-60
2022/09/09 03:39:32;;;;;;;7.60;1.42;;;14.50;99.90;;;;;;4966652;28;20031;-60
2022/09/09 03:41:57;;;;;;;3.22;1.25;;;14.50;99.90;;;;;;4964359;28;20055;-60
2022/09/09 03:44:23;;;;;;;3.22;1.40;;;14.60;99.90;;;;;;4971345;28;20050;-60
2022/09/09 03:46:49;;;;;;;6.57;1.35;;;14.60;99.90;;;;;;4973260;28;20500;-60
2022/09/09 03:49:15;;;;;;;5.63;1.45;;;14.60;99.90;;;;;;4972748;28;20051;-60
2022/09/09 03:51:41;;;;;;;4.20;1.30;;;14.70;99.90;;;;;;4972495;28;20027;-60
2022/09/09 03:54:09;;;;;;;4.68;1.30;;;14.60;99.90;;;;;;4970518;28;20054;-60
2022/09/09 03:56:36;;;;;;;5.75;1.20;;;14.60;99.90;;;;;;4966803;28;20125;-60
2022/09/09 03:59:03;;;;;;;7.57;1.17;;;14.70;99.90;;;;;;4971017;28;20383;-60
2022/09/09 04:01:29;;;;;;;3.22;1.33;;;14.70;99.90;;;;;;4972079;28;20125;-60
2022/09/09 04:03:57;;;;;;;5.03;1.20;;;14.60;99.90;;;;;;4967796;28;20109;-60
2022/09/09 04:06:24;;;;;;;5.78;1.25;;;14.60;99.90;;;;;;4972890;28;20069;-61
2022/09/09 04:08:52;;;;;;;5.30;1.20;;;14.60;99.90;;;;;;4971148;28;20038;-57
2022/09/09 04:11:18;;;;;;;3.55;1.08;;;14.60;99.90;;;;;;4972265;28;20031;-59
2022/09/09 04:13:44;;;;;;;4.10;1.45;;;14.60;99.90;;;;;;4970727;28;20078;-59
2022/09/09 04:16:11;;;;;;;4.22;1.20;;;14.60;99.90;;;;;;4971249;28;20901;-59
2022/09/09 04:18:37;;;;;;;10.07;1.60;;;14.60;99.90;;;;;;4972285;28;20023;-59
2022/09/09 04:21:04;;;;;;;3.88;0.90;;;14.60;99.90;;;;;;4969335;28;20037;-59
2022/09/09 04:23:30;;;;;;;5.63;1.25;;;14.70;99.90;;;;;;4969123;28;20043;-60
2022/09/09 04:25:58;;;;;;;5.30;1.52;;;14.70;99.90;;;;;;4965781;28;20054;-60
2022/09/09 04:28:25;;;;;;;4.68;1.00;;;14.70;99.90;;;;;;4973326;28;20030;-60
2022/09/09 04:30:52;;;;;;;5.00;1.00;;;14.60;99.90;;;;;;4970952;28;20040;-59
2022/09/09 04:33:18;;;;;;;4.72;1.00;;;14.60;99.90;;;;;;4970962;28;20035;-59
2022/09/09 04:35:54;;;;;;;2.85;1.52;;;14.50;99.90;;;;;;4968237;28;20100;-59
2022/09/09 04:38:22;;;;;;;4.53;1.40;;;14.50;99.90;;;;;;4972312;28;20030;-59
2022/09/09 04:40:49;;;;;;;4.15;1.67;;;14.50;99.90;;;;;;4972043;28;20034;-59
2022/09/09 04:43:15;;;;;;;5.93;2.00;;;14.40;99.90;;;;;;4965865;28;20027;-59
2022/09/09 04:45:46;;;;;;;4.82;1.13;;;14.40;99.90;;;;;;4968107;28;20138;-59
2022/09/09 04:48:12;;;;;;;4.47;1.20;;;14.40;99.90;;;;;;4969189;28;20051;-59
2022/09/09 04:50:38;;;;;;;5.05;1.45;;;14.50;99.90;;;;;;4971631;28;20281;-59
2022/09/09 04:53:05;;;;;;;6.00;1.23;;;14.50;99.90;;;;;;4967611;28;20077;-59
2022/09/09 04:55:31;;;;;;;5.97;1.35;;;14.50;99.90;;;;;;4971264;28;20033;-59
2022/09/09 04:57:57;;;;;;;5.55;1.48;;;14.50;99.90;;;;;;4962315;28;20030;-59
2022/09/09 05:00:24;;;;;;;4.50;2.10;;;14.60;99.90;;;;;;4970405;28;20126;-60
2022/09/09 05:02:50;;;;;;;5.25;1.60;;;14.60;99.90;;;;;;4968168;28;20022;-60
2022/09/09 05:05:16;;;;;;;5.38;1.20;;;14.70;99.90;;;;;;4970313;28;20047;-59
2022/09/09 05:07:43;;;;;;;8.50;2.10;;;14.70;99.90;;;;;;4968675;28;20090;-60
2022/09/09 05:10:10;;;;;;;2.42;1.08;;;14.70;99.90;;;;;;4967584;28;20023;-60
2022/09/09 05:12:36;;;;;;;2.75;1.40;;;14.70;99.90;;;;;;4964368;28;20061;-60
2022/09/09 05:15:01;;;;;;;7.78;1.65;;;14.80;99.90;;;;;;4963841;28;20398;-59
2022/09/09 05:17:27;;;;;;;5.13;1.50;;;14.80;99.90;;;;;;4970168;28;20065;-59
2022/09/09 05:19:53;;;;;;;8.50;1.60;;;14.70;99.90;;;;;;4968530;28;20126;-60
2022/09/09 05:22:22;;;;;;;3.78;1.58;;;14.70;99.90;;;;;;4970257;28;20026;-59
2022/09/09 05:24:52;;;;;;;2.60;1.23;;;14.80;99.90;;;;;;4969800;28;20039;-59
2022/09/09 05:27:19;;;;;;;5.70;1.67;;;14.80;99.90;;;;;;4969074;28;20038;-59
2022/09/09 05:29:45;;;;;;;6.35;2.03;;;14.80;99.90;;;;;;4969271;28;20034;-60
2022/09/09 05:32:11;;;;;;;5.22;1.70;;;14.80;99.90;;;;;;4963873;28;20034;-59
2022/09/09 05:34:40;;;;;;;5.38;1.60;;;14.80;99.90;;;;;;4968677;28;20042;-59
2022/09/09 05:37:06;;;;;;;6.57;1.95;;;14.90;99.90;;;;;;4967891;28;20511;-59
2022/09/09 05:39:32;;;;;;;7.38;1.70;;;14.90;99.90;;;;;;4970527;28;20045;-59
2022/09/09 05:41:58;;;;;;;4.28;2.25;;;14.90;99.90;;;;;;4968594;28;20422;-59
2022/09/09 05:44:27;;;;;;;6.72;1.85;;;14.90;99.90;;;;;;4965789;28;20513;-59
2022/09/09 05:46:54;;;;;;;6.10;2.38;;;14.90;99.90;;;;;;4959902;28;20107;-57
2022/09/09 05:49:20;;;;;;;6.57;1.95;;;14.90;99.90;;;;;;4969999;28;20045;-59
2022/09/09 05:51:45;;;;;;;10.23;2.38;;;15.00;99.90;;;;;;4969109;28;20038;-59
2022/09/09 05:54:15;;;;;;;6.55;2.03;;;15.00;99.90;;;;;;4968069;28;20027;-59
2022/09/09 05:56:41;;;;;;;5.25;2.10;;;15.10;99.90;;;;;;4968681;28;20072;-59
2022/09/09 05:59:07;;;;;;;5.00;2.05;;;15.10;99.90;;;;;;4968542;28;20033;-60
2022/09/09 06:01:35;;;;;;;8.35;2.28;;;15.10;99.90;;;;;;4970887;28;20022;-59
2022/09/09 06:04:00;;;;;;;3.78;1.98;;;15.20;99.90;;;;;;4968002;28;20032;-59
2022/09/09 06:06:31;;;;;;;6.85;3.10;;;15.20;99.90;;;;;;4969692;28;20474;-59
2022/09/09 06:08:58;;;;;;;8.20;3.53;;;15.30;99.90;;;;;;4962372;28;20117;-59
2022/09/09 06:11:26;;;;;;;6.00;2.20;;;15.30;99.90;;;;;;4968694;28;20406;-58
2022/09/09 06:13:54;;;;;;;4.85;1.75;;;15.20;99.90;;;;;;4965043;28;20030;-59
2022/09/09 06:16:26;;;;;;;6.22;2.05;;;15.30;99.90;;;;;;4970250;28;20034;-59
2022/09/09 06:18:53;;;;;;;3.60;2.05;;;15.30;99.90;;;;;;4968065;28;20019;-59
2022/09/09 06:21:27;;;;;;;5.35;1.85;;;15.40;99.90;;;;;;4970320;28;20501;-59
2022/09/09 06:23:53;;;;;;;8.65;3.38;;;15.40;99.90;;;;;;4965987;28;20155;-59
2022/09/09 06:26:20;;;;;;;7.95;1.92;;;15.40;99.90;;;;;;4969831;28;20474;-59
2022/09/09 06:28:47;;;;;;;3.65;2.50;;;15.40;99.90;;;;;;4968164;28;20080;-59
2022/09/09 06:31:17;;;;;;;6.30;1.95;;;15.50;99.90;;;;;;4967039;28;20121;-59
2022/09/09 06:33:44;;;;;;;6.45;2.30;;;15.50;99.90;;;;;;4969385;28;20027;-59
2022/09/09 06:36:20;;;;;;;7.05;2.65;;;15.60;99.90;;;;;;4968394;28;20093;-59
2022/09/09 06:38:46;;;;;;;6.35;2.28;;;15.60;99.90;;;;;;4972753;28;20034;-59
2022/09/09 06:41:14;;;;;;;4.75;2.00;;;15.70;99.90;;;;;;4971521;28;20070;-59
2022/09/09 06:43:40;;;;;;;4.28;1.77;;;15.70;99.90;;;;;;4962160;28;20027;-59
2022/09/09 06:46:10;;;;;;;7.53;1.90;;;15.70;99.90;;;;;;4965592;28;20121;-59
2022/09/09 06:48:36;;;;;;;3.90;1.60;;;15.70;99.90;;;;;;4972346;28;20055;-59
2022/09/09 06:51:14;;;;;;;6.50;2.20;;;15.70;99.90;;;;;;4972016;28;20031;-59
2022/09/09 06:53:41;;;;;;;9.93;2.58;;;15.80;99.90;;;;;;4973068;28;20525;-59
2022/09/09 06:56:10;;;;;;;4.75;1.95;;;15.90;99.90;;;;;;4967072;28;20081;-59
2022/09/09 06:58:46;;;;;;;6.43;2.58;;;15.90;99.90;;;;;;4969883;28;20121;-59
2022/09/09 07:01:14;;;;;;;5.28;2.03;;;16.00;99.90;;;;;;4970406;28;20031;-61
2022/09/09 07:03:42;;;;;;;5.22;1.98;;;16.00;99.90;;;;;;4972371;28;20549;-58
2022/09/09 07:06:13;;;;;;;8.02;2.47;;;16.10;99.90;;;;;;4970841;28;20110;-60
2022/09/09 07:08:39;;;;;;;5.32;2.78;;;16.00;99.90;;;;;;4972754;28;20542;-60
2022/09/09 07:11:07;;;;;;;6.07;2.20;;;16.00;99.90;;;;;;4968388;28;20111;-60
2022/09/09 07:13:33;;;;;;;4.95;1.77;;;16.10;99.90;;;;;;4965478;28;20027;-60
2022/09/09 07:16:11;;;;;;;3.97;2.20;;;16.10;99.90;;;;;;4970339;28;20026;-60
2022/09/09 07:18:37;;;;;;;6.30;1.83;;;16.10;99.90;;;;;;4970731;28;20037;-60
2022/09/09 07:21:04;;;;;;;5.72;2.03;;;16.10;99.90;;;;;;4970128;28;20035;-60
2022/09/09 07:23:30;;;;;;;8.57;2.38;;;16.10;99.90;;;;;;4973205;28;20035;-60
2022/09/09 07:25:57;;;;;;;3.53;1.50;;;16.00;99.90;;;;;;4969532;28;20065;-60
2022/09/09 07:28:24;;;;;;;5.38;1.60;;;16.00;99.90;;;;;;4969113;28;20030;-60
2022/09/09 07:30:57;;;;;;;7.88;2.30;;;16.00;99.90;;;;;;4968207;28;20065;-59
2022/09/09 07:33:24;;;;;;;4.28;1.42;;;16.10;99.90;;;;;;4972642;28;20026;-59
2022/09/09 07:35:51;;;;;;;5.00;1.38;;;16.10;99.90;;;;;;4972690;28;20066;-59
2022/09/09 07:38:18;;;;;;;5.10;1.65;;;16.10;99.90;;;;;;4971577;28;20109;-60
2022/09/09 07:40:44;;;;;;;2.22;1.60;;;16.10;99.90;;;;;;4972636;28;20031;-60
2022/09/09 07:43:11;;;;;;;4.35;1.58;;;16.20;99.90;;;;;;4970331;28;20528;-59
2022/09/09 07:45:37;;;;;;;3.70;1.75;;;16.20;99.90;;;;;;4972389;28;20047;-59
2022/09/09 07:48:03;;;;;;;5.75;1.90;;;16.30;99.90;;;;;;4966424;28;20130;-59
2022/09/09 07:50:30;;;;;;;2.92;1.70;;;16.40;99.90;;;;;;4970534;28;20085;-59
2022/09/09 07:52:55;;;;;;;4.57;2.28;;;16.40;99.90;;;;;;4966182;28;20546;-59
2022/09/09 07:55:26;;;;;;;4.00;1.80;;;16.50;99.90;;;;;;4968710;28;20126;-59
2022/09/09 07:57:53;;;;;;;5.13;1.90;;;16.60;99.90;;;;;;4966716;28;20033;-59
2022/09/09 08:00:21;;;;;;;3.97;1.60;;;16.60;99.90;;;;;;4964914;28;20490;-59
2022/09/09 08:02:48;;;;;;;6.03;2.60;;;16.60;99.90;;;;;;4971805;28;20409;-60
2022/09/09 08:05:14;;;;;;;1.88;1.33;;;16.50;99.90;;;;;;4969414;28;20042;-58
2022/09/09 08:07:40;;;;;;;5.30;1.60;;;16.40;99.90;;;;;;4968769;28;20025;-61
2022/09/09 08:10:06;;;;;;;5.88;1.90;;;16.50;99.90;;;;;;4968568;28;20051;-59
2022/09/09 08:12:32;;;;;;;2.92;1.83;;;16.60;99.90;;;;;;4965132;28;20022;-59
2022/09/09 08:14:58;;;;;;;3.67;2.00;;;16.80;99.90;;;;;;4968069;28;20038;-59
2022/09/09 08:17:24;;;;;;;5.93;2.38;;;17.00;99.90;;;;;;4971055;28;20039;-59
2022/09/09 08:19:49;;;;;;;5.10;1.90;;;17.20;99.90;;;;;;4970690;28;20057;-60
2022/09/09 08:22:15;;;;;;;4.38;1.73;;;17.30;99.90;;;;;;4970064;28;20081;-60
2022/09/09 08:24:41;;;;;;;6.35;1.98;;;17.20;99.90;;;;;;4970217;28;20046;-60
2022/09/09 08:27:06;;;;;;;3.53;1.95;;;17.30;99.90;;;;;;4967838;28;20117;-60
2022/09/09 08:29:32;;;;;;;7.72;1.90;;;17.10;99.90;;;;;;4969476;28;20027;-60
2022/09/09 08:31:59;;;;;;;2.90;1.50;;;17.10;99.90;;;;;;4969696;28;20041;-60
2022/09/09 08:34:26;;;;;;;4.18;1.70;;;17.10;99.90;;;;;;4971179;28;20053;-60
2022/09/09 08:36:53;;;;;;;4.88;1.90;;;17.10;99.90;;;;;;4972944;28;20027;-60
2022/09/09 08:39:21;;;;;;;5.13;2.20;;;17.10;99.90;;;;;;4964701;28;20030;-60
2022/09/09 08:41:49;;;;;;;9.43;2.40;;;17.20;99.90;;;;;;4955051;28;20046;-60
2022/09/09 08:44:27;;;;;;;6.30;2.97;;;17.30;99.90;;;;;;4965687;28;20117;-60
2022/09/09 08:47:01;;;;;;;7.93;1.85;;;17.30;99.90;;;;;;4965932;28;20066;-59
2022/09/09 08:49:46;;;;;;;4.82;2.13;;;17.50;99.90;;;;;;4966421;28;20102;-59
2022/09/09 08:52:21;;;;;;;5.22;2.17;;;17.50;99.90;;;;;;4961522;28;20038;-59
2022/09/09 08:54:48;;;;;;;5.10;2.08;;;17.50;99.90;;;;;;4966516;28;20034;-59
2022/09/09 08:57:24;;;;;;;4.93;2.92;;;17.50;99.90;;;;;;4966441;28;20054;-60
2022/09/09 08:59:50;;;;;;;3.22;1.95;;;17.50;99.90;;;;;;4966547;28;20044;-59
2022/09/09 09:02:42;;;;;;;6.90;2.20;;;17.40;99.90;;;;;;4967637;28;20125;-60
2022/09/09 09:05:20;;;;;;;5.65;3.00;;;17.40;99.90;;;;;;4965813;28;20046;-58
2022/09/09 09:07:52;;;;;;;4.60;2.42;;;17.40;99.90;;;;;;4967734;28;20027;-59
2022/09/09 09:10:30;;;;;;;4.70;2.67;;;17.40;99.90;;;;;;4968228;28;20471;-59
2022/09/09 09:12:56;;;;;;;5.35;3.00;;;17.40;99.90;;;;;;4966461;28;20110;-60
2022/09/09 09:15:30;;;;;;;4.85;2.22;;;17.40;99.90;;;;;;4966396;28;20027;-59
2022/09/09 09:17:56;;;;;;;5.03;2.20;;;17.40;99.90;;;;;;4968472;28;20030;-57
2022/09/09 09:20:33;;;;;;;3.45;1.80;;;17.40;99.90;;;;;;4967546;28;20113;-60
2022/09/09 09:23:03;;;;;;;6.90;2.28;;;17.30;99.90;;;;;;4962083;28;20044;-58
2022/09/09 09:25:36;;;;;;;8.30;2.72;;;17.50;99.90;;;;;;4966434;28;20049;-59
2022/09/09 09:28:21;;;;;;;8.27;1.95;;;17.60;99.90;;;;;;4962807;28;20391;-60
2022/09/09 09:31:10;;;;;;;5.75;1.83;;;17.70;99.90;;;;;;4966369;28;20019;-59
2022/09/09 09:33:53;;;;;;;8.57;1.98;;;17.70;99.90;;;;;;4967331;28;20046;-60
2022/09/09 09:36:24;;;;;;;5.57;1.85;;;17.70;99.90;;;;;;4967648;28;20106;-58
2022/09/09 09:38:57;;;;;;;7.60;2.30;;;17.60;99.90;;;;;;4967035;28;20103;-59
2022/09/09 09:41:36;;;;;;;4.95;1.73;;;17.50;99.90;;;;;;4966806;28;20483;-59
2022/09/09 09:44:02;;;;;;;5.57;2.05;;;17.60;99.90;;;;;;4960274;28;20452;-59
2022/09/09 09:46:29;;;;;;;4.57;1.67;;;17.60;99.90;;;;;;4967809;28;20057;-60
2022/09/09 09:49:02;;;;;;;7.03;2.20;;;17.70;99.90;;;;;;4965785;28;20121;-60
2022/09/09 09:51:30;;;;;;;8.20;1.80;;;17.70;99.90;;;;;;4967351;28;20034;-60
2022/09/09 09:54:27;;;;;;;7.60;1.67;;;17.70;99.90;;;;;;4964762;28;20035;-62
2022/09/09 09:56:53;;;;;;;7.72;1.90;;;17.50;99.90;;;;;;4963986;28;20038;-59
2022/09/09 09:59:39;;;;;;;5.68;1.70;;;17.50;99.90;;;;;;4964594;28;20027;-59
2022/09/09 10:02:25;;;;;;;6.07;1.80;;;17.50;99.90;;;;;;4963270;28;20125;-59
2022/09/09 10:05:17;;;;;;;4.65;1.90;;;17.70;99.90;;;;;;4964356;28;20066;-60
2022/09/09 10:07:47;;;;;;;3.97;1.45;;;18.10;99.90;;;;;;4967210;28;20112;-59
2022/09/09 10:10:24;;;;;;;4.80;1.50;;;18.20;99.90;;;;;;4964481;28;20023;-59
2022/09/09 10:12:50;;;;;;;5.43;1.75;;;18.40;99.90;;;;;;4964743;28;20027;-59
2022/09/09 10:15:28;;;;;;;2.63;1.20;;;18.50;99.90;;;;;;4965527;28;20097;-59
2022/09/09 10:18:28;;;;;;;4.05;1.60;;;18.60;99.90;;;;;;4962435;28;20038;-59
2022/09/09 10:21:33;;;;;;;4.25;1.45;;;18.80;99.90;;;;;;4958031;28;20386;-59
2022/09/09 10:24:05;;;;;;;3.85;1.42;;;19.10;99.90;;;;;;4963935;28;20030;-58
2022/09/09 10:27:00;;;;;;;2.55;1.20;;;19.30;99.90;;;;;;4972695;28;20538;-58
2022/09/09 10:29:50;;;;;;;3.78;1.10;;;19.70;99.90;;;;;;4965479;28;20109;-60
2022/09/09 10:32:54;;;;;;;5.85;1.10;;;19.90;99.90;;;;;;4962261;28;20489;-59
2022/09/09 10:35:58;;;;;;;2.83;1.40;;;20.20;99.90;;;;;;4958396;28;20430;-58
2022/09/09 10:38:45;;;;;;;2.05;1.00;;;20.30;99.90;;;;;;4960905;28;20039;-59
2022/09/09 10:41:20;;;;;;;5.10;1.40;;;20.10;99.90;;;;;;4962246;28;20351;-59
2022/09/09 10:44:06;;;;;;;2.80;1.10;;;19.60;99.90;;;;;;4959757;28;20520;-59
2022/09/09 10:47:15;;;;;;;4.63;1.50;;;19.40;99.90;;;;;;4963866;28;20058;-59
2022/09/09 10:50:18;;;;;;;3.90;0.90;;;19.50;99.90;;;;;;4965217;28;20085;-59
2022/09/09 10:53:20;;;;;;;2.50;1.02;;;19.50;99.90;;;;;;4963834;28;20034;-59
2022/09/09 10:55:53;;;;;;;4.18;0.80;;;19.70;99.90;;;;;;4963915;28;20137;-58
2022/09/09 10:58:35;;;;;;;3.28;0.70;;;19.90;99.90;;;;;;4962033;28;20039;-59
2022/09/09 11:01:12;;;;;;;3.25;0.80;;;19.80;99.90;;;;;;4962031;28;20026;-59
2022/09/09 11:03:40;;;;;;;2.53;0.90;;;20.20;99.90;;;;;;4961516;28;20047;-59
2022/09/09 11:06:14;;;;;;;3.58;0.68;;;20.60;99.90;;;;;;4963066;28;20502;-59
2022/09/09 11:08:40;;;;;;;1.73;0.60;;;21.10;99.90;;;;;;4963722;28;20035;-59
2022/09/09 11:11:19;;;;;;;1.65;0.30;;;21.30;99.90;;;;;;4965158;28;20038;-59
2022/09/09 11:14:16;;;;;;;1.70;0.50;;;21.50;99.90;;;;;;4964708;28;20787;-59
2022/09/09 11:16:53;;;;;;;2.25;0.60;;;21.40;99.90;;;;;;4966565;28;20031;-60
2022/09/09 11:19:31;;;;;;;1.50;0.40;;;21.00;99.90;;;;;;4964735;28;20027;-59
2022/09/09 11:22:01;;;;;;;2.53;0.70;;;20.70;99.90;;;;;;4964719;28;20038;-60
2022/09/09 11:24:40;;;;;;;2.92;0.60;;;20.40;99.90;;;;;;4966852;28;20054;-60
2022/09/09 11:30:52;;;;;;;4.53;1.52;;;19.40;99.90;;;;;;4962217;28;20045;-67
2022/09/09 11:33:57;;;;;;;6.70;0.70;;;18.60;99.90;;;;;;4972131;28;20037;-67
2022/09/09 11:36:35;;;;;;;8.98;1.83;;;17.70;99.90;;;;;;4970404;28;20038;-65
2022/09/09 11:39:41;;;;;;;9.18;1.63;;;17.60;99.90;;;;;;4972911;28;20031;-62
2022/09/09 11:42:15;;;;;;;6.93;1.77;;;17.50;99.90;;;;;;4961444;28;20439;-61
2022/09/09 11:44:42;;;;;;;7.82;1.88;;;17.50;99.90;;;;;;4963741;28;20097;-60
2022/09/09 11:47:29;;;;;;;7.57;1.98;;;17.60;99.90;;;;;;4969874;28;20019;-61
2022/09/09 11:50:07;;;;;;;9.52;2.30;;;18.00;99.90;;;;;;4963451;28;20023;-61
2022/09/09 11:52:45;;;;;;;5.90;1.73;;;18.50;99.90;;;;;;4969580;28;20041;-61
2022/09/09 11:55:36;;;;;;;6.68;1.45;;;19.00;99.90;;;;;;4967713;28;20039;-61
2022/09/09 11:58:22;;;;;;;7.68;1.02;;;19.20;99.90;;;;;;4967337;28;20031;-60
2022/09/09 12:00:49;;;;;;;3.35;1.10;;;19.40;99.90;;;;;;4968675;28;20027;-60
2022/09/09 12:03:48;;;;;;;6.18;1.15;;;19.20;99.90;;;;;;4967164;28;20325;-60
2022/09/09 12:06:31;;;;;;;5.13;1.65;;;19.10;99.90;;;;;;4964470;28;20035;-60
2022/09/09 12:12:28;;;;;;;4.97;1.60;;;18.30;99.90;;;;;;4953243;28;20038;-66
2022/09/09 12:15:01;;;;;;;7.25;1.60;;;18.20;99.90;;;;;;4965044;28;20549;-62
2022/09/09 12:17:30;;;;;;;8.57;1.98;;;18.10;99.90;;;;;;4969105;28;20445;-61
2022/09/09 12:20:37;;;;;;;9.63;1.67;;;18.10;99.90;;;;;;4968149;28;20483;-60
2022/09/09 12:23:42;;;;;;;6.13;1.73;;;18.30;99.90;;;;;;4945878;28;20031;-60
2022/09/09 12:26:42;;;;;;;3.85;1.02;;;18.50;99.90;;;;;;4947277;28;20134;-59
2022/09/09 12:29:13;;;;;;;5.32;1.83;;;18.40;99.90;;;;;;4947565;29;20039;-59
2022/09/09 12:31:57;;;;;;;4.40;1.92;;;18.40;99.90;;;;;;4948613;29;20514;-60
2022/09/09 12:34:23;;;;;;;3.17;0.88;;;18.40;99.90;;;;;;4945084;28;20200;-60
2022/09/09 12:36:55;;;;;;;4.88;0.85;;;18.40;99.90;;;;;;4949133;29;20134;-60
2022/09/09 12:39:34;;;;;;;5.28;1.30;;;18.50;99.90;;;;;;4949949;29;20024;-60
2022/09/09 12:42:00;;;;;;;4.40;0.80;;;18.50;99.90;;;;;;4946769;28;20090;-60
2022/09/09 12:44:29;;;;;;;5.78;1.10;;;18.40;99.90;;;;;;4947914;29;20134;-60
2022/09/09 12:46:59;;;;;;;5.38;1.08;;;18.50;99.90;;;;;;4946870;29;20035;-60
2022/09/09 12:49:38;;;;;;;2.50;0.80;;;18.60;99.90;;;;;;4949059;28;20410;-59
2022/09/09 12:52:07;;;;;;;5.47;1.30;;;18.50;99.90;;;;;;4947189;28;20131;-59
2022/09/09 12:54:36;;;;;;;4.72;1.20;;;18.30;99.90;;;;;;4947519;29;20135;-59
2022/09/09 12:57:03;;;;;;;5.60;0.90;;;18.00;99.90;;;;;;4957238;28;20117;-59
2022/09/09 12:59:40;;;;;;;5.40;0.98;;;17.80;99.90;;;;;;4971982;28;20062;-59
2022/09/09 13:02:24;;;;;;;3.55;0.93;;;17.80;99.90;;;;;;4974308;28;20543;-59
2022/09/09 13:04:50;;;;;;;8.00;1.45;;;17.90;99.90;;;;;;4965454;28;20410;-60
2022/09/09 13:07:18;;;;;;;3.35;0.80;;;18.10;99.90;;;;;;4965679;28;20030;-61
2022/09/09 13:09:45;;;;;;;3.50;0.70;;;18.20;99.90;;;;;;4967664;28;20046;-59
2022/09/09 13:12:19;;;;;;;3.13;0.82;;;18.50;99.90;;;;;;4958660;28;20026;-59
2022/09/09 13:14:48;;;;;;;1.35;0.60;;;18.90;99.90;;;;;;4967464;28;20080;-59
2022/09/09 13:17:25;;;;;;;4.38;0.95;;;19.30;99.90;;;;;;4964232;28;20388;-59
2022/09/09 13:19:52;;;;;;;3.20;1.35;;;19.70;99.90;;;;;;4967410;28;20027;-58
2022/09/09 13:22:38;;;;;;;4.28;0.65;;;19.80;99.90;;;;;;4965543;28;20030;-59